map of VIH home
VIH - Airport
Location
City:  Rolla/Vichy, Missouri, United States
Name:Rolla National Airport
ICAO:KVIH
IATA:VIH
FAA LID:VIH

Details
Type:Airport (Airfield)
Use:Public/Civil
Latitude:3807'39"N (38.127417)
Longitude:9146'10"W (-91.769499)
Datum:WGS 1984
Elevation:1148 ft (350 m)
Variation:0.39W (WMM2015v2 magnetic declination)
-0.07 annual change
Runways:2
Longest:5500 × 100 ft (1676 × 30.5 m), paved

Time
Time Zone:UTC-6 (DST-5)
Local Time:

Weather
METAR:KVIH 041419Z AUTO 17009KT 10SM FEW016 BKN037 OVC050 14/12 A2975 RMK AO2 T01440117

Related Locations
Nearby:
Farthest:YAUG: 10922 mi / 17577 km
Augusta [Augusta Airport], WA, AU

Find:

   beyond  
but within

Other Information
Maps:
NOTAMs:
Links:
Sources:

  
  • flag of United States
  • flag of Missouri
  

Sectional Chart

Flight Planning
at skyvector.com

Satellite Image

Google Maps Satellite view

 

Copyright © 2004-2019 Karl L. Swartz. All rights reserved.
The Great Circle Mapper name and logo are trademarks of the Great Circle Mapper.
All other trademarks mentioned herein belong to their respective owners.
Please see credits for attibutions and further copyright information.

  Follow gcmap on Facebook Follow gcmap on Twitter GCmap on LinkedIn

hCard Microformat

Geo Microformat